Loodiep — A8ZO7 — position and weather

sailwx.info

Track history (hours):
 
Tides and Currents Weather Stations Pressure Air Temp Water Temp Dewpoint Dewpoint Depression Visibility Wind Speed Wind Dir Waves Ship Positions

Loodiep

Last reported at 2016-Dec-11 02:33 UTC. Time now 2016-Dec-11 06:07 UTC.
Position N 35°58' W 005°15'.

Length 108 m; draft 6.9 m.

Type: Cargo ship. MMSI: 636015263.

Date/timePositionNaut miles runAvg speedWind from/ knotsBaromVisibWave heightAir tempDewpointWater temp
2016-Dec-11 02:33N 35°58' W 005°15'10 9.9
2016-Dec-11 01:33N 35°57' W 005°27'257 7.1
2016-Dec-09 13:24N 38°15' W 009°58'9 8.7
2016-Dec-09 12:22N 38°24' W 010°01'7 8.4
2016-Dec-09 11:33N 38°31' W 010°03'9 8.0
2016-Dec-09 10:25N 38°40' W 010°05'  
2016-Dec-06 00:06N 48°53' W 005°47'910.1
2016-Dec-05 23:15N 48°58' W 005°36'34 9.0
2016-Dec-05 19:27N 49°15' W 004°51'8 8.5
2016-Dec-05 18:32N 49°19' W 004°41'9 8.9
2016-Dec-05 17:33N 49°23' W 004°30'10 9.5
2016-Dec-05 16:30N 49°28' W 004°16'1010.2
2016-Dec-05 15:29N 49°35' W 004°04'1110.6
2016-Dec-05 14:27N 49°39' W 003°48'1110.6
2016-Dec-05 13:27N 49°44' W 003°34'9 9.9
2016-Dec-05 12:33N 49°49' W 003°22'10 9.2
2016-Dec-05 11:29N 49°54' W 003°09'8 8.6
2016-Dec-05 10:33N 49°58' W 002°58'8 8.4
2016-Dec-05 09:33N 50°01' W 002°46'9 8.9
2016-Dec-05 08:33N 50°03' W 002°32'4911.3
2016-Dec-05 04:15N 50°17' W 001°19'3110.6
2016-Dec-05 01:18N 50°26' W 000°32'7 8.7
2016-Dec-05 00:33N 50°28' W 000°23'8 8.3
2016-Dec-04 23:33N 50°31' W 000°10'4 3.3
2016-Dec-04 22:28N 50°32' W 000°05'4 4.1
2016-Dec-04 21:33N 50°32' E 000°01'10 9.7
2016-Dec-04 20:33N 50°35' E 000°16'3310.5
2016-Dec-04 17:25N 50°50' E 001°01'8 9.6
2016-Dec-04 16:33N 50°56' E 001°12'8 8.4
2016-Dec-04 15:33N 51°01' E 001°22'7 7.4
2016-Dec-04 14:33N 51°06' E 001°31'8 7.9
2016-Dec-04 13:33N 51°11' E 001°40'9 9.0
2016-Dec-04 12:33N 51°18' E 001°49'1111.0
2016-Dec-04 11:33N 51°27' E 001°59'1211.5
2016-Dec-04 10:33N 51°36' E 002°11'1211.3
2016-Dec-04 09:31N 51°45' E 002°23'1010.6
2016-Dec-04 08:32N 51°53' E 002°34'115 9.5
2016-Dec-03 20:31N 53°22' E 004°33'8 8.6
2016-Dec-03 19:33N 53°29' E 004°41'9 8.7
2016-Dec-03 18:33N 53°32' E 004°54'10 9.4
2016-Dec-03 17:32N 53°35' E 005°09'1110.6
2016-Dec-03 16:32N 53°39' E 005°26'1110.9
2016-Dec-03 15:32N 53°42' E 005°44'51 9.6
2016-Dec-03 10:14N 53°56' E 007°06'35 9.3
2016-Dec-03 06:31N 54°01' E 008°05'1010.4
2016-Dec-03 05:32N 53°60' E 008°22'1212.1
2016-Dec-03 04:33N 53°55' E 008°41'9 9.2
2016-Dec-03 03:33N 53°51' E 008°54'8 8.1
2016-Dec-03 02:33N 53°53' E 009°07'2 1.8
2016-Dec-03 01:33N 53°54' E 009°09'7 7.4
2016-Dec-03 00:34N 53°60' E 009°17'5 5.0
2016-Dec-02 23:33N 54°05' E 009°19'9 7.0
2016-Dec-02 22:12N 54°11' E 009°31'2 2.7
2016-Dec-02 21:22N 54°12' E 009°34'6 7.2
2016-Dec-02 20:33N 54°17' E 009°40'4 3.7
2016-Dec-02 19:32N 54°20' E 009°44'7 7.0
2016-Dec-02 18:33N 54°20' E 009°56'4 4.0
2016-Dec-02 17:34N 54°22' E 010°02'3 2.5
2016-Dec-02 16:33N 54°22' E 010°07'0 0.0
2016-Dec-02 15:33N 54°22' E 010°07'0 0.0
2016-Dec-02 14:33N 54°22' E 010°07'0 0.0
2016-Dec-02 13:33N 54°22' E 010°07'0 0.0
2016-Dec-02 12:33N 54°22' E 010°07'0 0.0
2016-Dec-02 11:33N 54°22' E 010°07'0 0.0
2016-Dec-02 10:33N 54°22' E 010°07'0 0.0
2016-Dec-02 09:33N 54°22' E 010°07'0 0.0
2016-Dec-02 08:33N 54°22' E 010°07'1 0.7
2016-Dec-02 07:33N 54°22' E 010°08'0 0.0
2016-Dec-02 06:33N 54°22' E 010°08'0 0.4
2016-Dec-02 05:33N 54°22' E 010°08'1 1.4
2016-Dec-02 04:33N 54°23' E 010°11'9 9.1
2016-Dec-02 03:33N 54°30' E 010°19'7 6.7
2016-Dec-02 02:33N 54°34' E 010°29'8 7.5
2016-Dec-02 01:33N 54°35' E 010°42'7 7.4
2016-Dec-02 00:33N 54°36' E 010°55'7 7.3
2016-Dec-01 23:33N 54°36' E 011°07'7 6.7
2016-Dec-01 22:33N 54°34' E 011°18'7 7.3
2016-Dec-01 21:33N 54°31' E 011°29'15 6.8
2016-Dec-01 19:24N 54°26' E 011°53'11 6.1
2016-Dec-01 17:33N 54°29' E 012°11'8 7.6
2016-Dec-01 16:33N 54°37' E 012°15'9 7.1
2016-Dec-01 15:20N 54°41' E 012°28'40 6.9
2016-Dec-01 09:32N 54°57' E 013°32'7 7.1
2016-Dec-01 08:30N 54°60' E 013°44'7 7.3
2016-Dec-01 07:33N 55°02' E 013°55'8 7.9
2016-Dec-01 06:33N 55°06' E 014°07'8 8.4
2016-Dec-01 05:33N 55°12' E 014°16'8 8.3
2016-Dec-01 04:33N 55°19' E 014°25'8 8.3
2016-Dec-01 03:33N 55°25' E 014°34'  
Track history (hours):
 
Tides and Currents Weather Stations Pressure Air Temp Water Temp Dewpoint Dewpoint Depression Visibility Wind Speed Wind Dir Waves Ship Positions

Loodiep

Last reported at 2016-Dec-11 02:33 UTC. Time now 2016-Dec-11 06:07 UTC.
Position N 35°58' W 005°15'.

Length 108 m; draft 6.9 m.

Type: Cargo ship. MMSI: 636015263.

Date/timePositionNaut miles runAvg speedWind from/ knotsBaromVisibWave heightAir tempDewpointWater temp
2016-Dec-11 02:33N 35°58' W 005°15'10 9.9
2016-Dec-11 01:33N 35°57' W 005°27'257 7.1
2016-Dec-09 13:24N 38°15' W 009°58'9 8.7
2016-Dec-09 12:22N 38°24' W 010°01'7 8.4
2016-Dec-09 11:33N 38°31' W 010°03'9 8.0
2016-Dec-09 10:25N 38°40' W 010°05'  
2016-Dec-06 00:06N 48°53' W 005°47'910.1
2016-Dec-05 23:15N 48°58' W 005°36'34 9.0
2016-Dec-05 19:27N 49°15' W 004°51'8 8.5
2016-Dec-05 18:32N 49°19' W 004°41'9 8.9
2016-Dec-05 17:33N 49°23' W 004°30'10 9.5
2016-Dec-05 16:30N 49°28' W 004°16'1010.2
2016-Dec-05 15:29N 49°35' W 004°04'1110.6
2016-Dec-05 14:27N 49°39' W 003°48'1110.6
2016-Dec-05 13:27N 49°44' W 003°34'9 9.9
2016-Dec-05 12:33N 49°49' W 003°22'10 9.2
2016-Dec-05 11:29N 49°54' W 003°09'8 8.6
2016-Dec-05 10:33N 49°58' W 002°58'8 8.4
2016-Dec-05 09:33N 50°01' W 002°46'9 8.9
2016-Dec-05 08:33N 50°03' W 002°32'4911.3
2016-Dec-05 04:15N 50°17' W 001°19'3110.6
2016-Dec-05 01:18N 50°26' W 000°32'7 8.7
2016-Dec-05 00:33N 50°28' W 000°23'8 8.3
2016-Dec-04 23:33N 50°31' W 000°10'4 3.3
2016-Dec-04 22:28N 50°32' W 000°05'4 4.1
2016-Dec-04 21:33N 50°32' E 000°01'10 9.7
2016-Dec-04 20:33N 50°35' E 000°16'3310.5
2016-Dec-04 17:25N 50°50' E 001°01'8 9.6
2016-Dec-04 16:33N 50°56' E 001°12'8 8.4
2016-Dec-04 15:33N 51°01' E 001°22'7 7.4
2016-Dec-04 14:33N 51°06' E 001°31'8 7.9
2016-Dec-04 13:33N 51°11' E 001°40'9 9.0
2016-Dec-04 12:33N 51°18' E 001°49'1111.0
2016-Dec-04 11:33N 51°27' E 001°59'1211.5
2016-Dec-04 10:33N 51°36' E 002°11'1211.3
2016-Dec-04 09:31N 51°45' E 002°23'1010.6
2016-Dec-04 08:32N 51°53' E 002°34'115 9.5
2016-Dec-03 20:31N 53°22' E 004°33'8 8.6
2016-Dec-03 19:33N 53°29' E 004°41'9 8.7
2016-Dec-03 18:33N 53°32' E 004°54'10 9.4
2016-Dec-03 17:32N 53°35' E 005°09'1110.6
2016-Dec-03 16:32N 53°39' E 005°26'1110.9
2016-Dec-03 15:32N 53°42' E 005°44'51 9.6
2016-Dec-03 10:14N 53°56' E 007°06'35 9.3
2016-Dec-03 06:31N 54°01' E 008°05'1010.4
2016-Dec-03 05:32N 53°60' E 008°22'1212.1
2016-Dec-03 04:33N 53°55' E 008°41'9 9.2
2016-Dec-03 03:33N 53°51' E 008°54'8 8.1
2016-Dec-03 02:33N 53°53' E 009°07'2 1.8
2016-Dec-03 01:33N 53°54' E 009°09'7 7.4
2016-Dec-03 00:34N 53°60' E 009°17'5 5.0
2016-Dec-02 23:33N 54°05' E 009°19'9 7.0
2016-Dec-02 22:12N 54°11' E 009°31'2 2.7
2016-Dec-02 21:22N 54°12' E 009°34'6 7.2
2016-Dec-02 20:33N 54°17' E 009°40'4 3.7
2016-Dec-02 19:32N 54°20' E 009°44'7 7.0
2016-Dec-02 18:33N 54°20' E 009°56'4 4.0
2016-Dec-02 17:34N 54°22' E 010°02'3 2.5
2016-Dec-02 16:33N 54°22' E 010°07'0 0.0
2016-Dec-02 15:33N 54°22' E 010°07'0 0.0
2016-Dec-02 14:33N 54°22' E 010°07'0 0.0
2016-Dec-02 13:33N 54°22' E 010°07'0 0.0
2016-Dec-02 12:33N 54°22' E 010°07'0 0.0
2016-Dec-02 11:33N 54°22' E 010°07'0 0.0
2016-Dec-02 10:33N 54°22' E 010°07'0 0.0
2016-Dec-02 09:33N 54°22' E 010°07'0 0.0
2016-Dec-02 08:33N 54°22' E 010°07'1 0.7
2016-Dec-02 07:33N 54°22' E 010°08'0 0.0
2016-Dec-02 06:33N 54°22' E 010°08'0 0.4
2016-Dec-02 05:33N 54°22' E 010°08'1 1.4
2016-Dec-02 04:33N 54°23' E 010°11'9 9.1
2016-Dec-02 03:33N 54°30' E 010°19'7 6.7
2016-Dec-02 02:33N 54°34' E 010°29'8 7.5
2016-Dec-02 01:33N 54°35' E 010°42'7 7.4
2016-Dec-02 00:33N 54°36' E 010°55'7 7.3
2016-Dec-01 23:33N 54°36' E 011°07'7 6.7
2016-Dec-01 22:33N 54°34' E 011°18'7 7.3
2016-Dec-01 21:33N 54°31' E 011°29'15 6.8
2016-Dec-01 19:24N 54°26' E 011°53'11 6.1
2016-Dec-01 17:33N 54°29' E 012°11'8 7.6
2016-Dec-01 16:33N 54°37' E 012°15'9 7.1
2016-Dec-01 15:20N 54°41' E 012°28'40 6.9
2016-Dec-01 09:32N 54°57' E 013°32'7 7.1
2016-Dec-01 08:30N 54°60' E 013°44'7 7.3
2016-Dec-01 07:33N 55°02' E 013°55'8 7.9
2016-Dec-01 06:33N 55°06' E 014°07'8 8.4
2016-Dec-01 05:33N 55°12' E 014°16'8 8.3
2016-Dec-01 04:33N 55°19' E 014°25'8 8.3
2016-Dec-01 03:33N 55°25' E 014°34'  

Dump ship's entire track history